Saint-Hyacinthe, Canada
Current Conditions -  °F | °C
As of 5:00 AM on Sunday 25 Jan 2015 (Local Time) from CYHU Reporting Station
Overcast Overcast  
Wind Chill:   Ceiling: 8900
Heat Index: 18°   Visibility: 9mi
Dew Point:   Wind: 16mph
Humidity: 53%   Direction: 320°NW
Pressure: 29.47"   Gusts: 30mph
Location:  45.62°N, 72.95°W
Report Text: CYHU 251000Z AUTO 32014G26KT 9SM FEW031 SCT080 OVC089 M08/M16 A2947 RMK PRESRR SLP981
Loading
Personal Weather Stations






























Interactive Weather Map New forecast layout! Learn more

10-Day Weather Forecast

Advertisements
Track Severe Weather on mobile